Home > Products > Valid Products > TAF

000
FTUS41 KRLX 232300
TAFEKN
TAF
KEKN 232324Z 2400/2424 18016G29KT P6SM -SHRA OVC040
      TEMPO 2400/2402 BKN025
     FM240200 17016G28KT 5SM -SHRA BR OVC025
     FM240700 17013G23KT 4SM BR OVC015
     FM241000 20011G19KT 6SM BR BKN025
     FM241200 19010G17KT P6SM SCT030
     FM241400 20013G21KT P6SM SCT100
     FM241700 21017G31KT P6SM SCT090=



000
FTUS41 KRLX 232300
TAFBKW
TAF
KBKW 232324Z 2400/2424 14021G39KT 6SM -SHRA BR OVC015
     FM240200 14018G34KT 5SM -SHRA BR OVC010
     FM240500 16014G26KT 4SM BR BKN010
     FM240800 19012G22KT P6SM SCT015
     FM241600 19017G29KT P6SM SCT090
     FM241900 22019G37KT P6SM SCT150
     FM242300 24014G26KT P6SM SCT150=



000
FTUS41 KRLX 232300
TAFPKB
TAF
KPKB 232324Z 2400/2424 15011G20KT P6SM -SHRA OVC060
     FM240600 17012G22KT P6SM OVC040
     FM240800 19012G22KT 5SM BR BKN030
     FM241100 18011G19KT 6SM BR BKN035
     FM241600 19017G31KT P6SM BKN035
     FM241800 21022G40KT P6SM BKN040
     FM242200 24016G32KT P6SM BKN035=



000
FTUS41 KRLX 232300
TAFCKB
TAF
KCKB 232324Z 2400/2424 14007KT P6SM -SHRA OVC080
     FM240600 16012G22KT P6SM OVC040
     FM240900 20012G22KT P6SM BKN040
     FM241100 19009G15KT P6SM SCT040
     FM241400 19012G19KT P6SM SCT100
     FM241600 20018G29KT P6SM SCT100
     FM241800 21022G40KT P6SM SCT060
     FM242000 22018G32KT P6SM BKN040
     FM242300 23015G24KT P6SM BKN035=



000
FTUS41 KRLX 232300
TAFHTS
TAF
KHTS 232324Z 2400/2424 14011G18KT 6SM -SHRA BR OVC035
      TEMPO 2400/2402 5SM BR
     FM240500 18013G23KT 6SM BR BKN025
     FM240900 20011G20KT P6SM SCT025 BKN040
     FM241600 20018G31KT P6SM BKN040
     FM241800 22022G38KT P6SM BKN040
     FM242200 23017G28KT P6SM BKN035=



000
FTUS41 KRLX 232300
TAFCRW
TAF
KCRW 232324Z 2400/2424 14014G25KT P6SM -SHRA OVC070
     FM240500 17012KT P6SM BKN040
     FM240900 20012KT P6SM BKN040
     FM241500 21014G28KT P6SM BKN080
     FM241800 23018G37KT P6SM BKN080
     FM242300 25014G26KT P6SM SCT080=



000
FTUS41 KRLX 231700
TAFHTS
TAF
KHTS 231724Z 2318/2418 15007KT P6SM BKN070
     FM232100 15011G16KT 6SM -SHRA BR OVC050
     FM232300 14011G20KT 3SM -RA BR OVC045
     FM240400 16011G20KT 5SM -RA BR BKN020 OVC030
     FM240600 18010G18KT P6SM BKN020
     FM240900 20010KT P6SM SCT020
     FM241100 18011G19KT P6SM BKN035
     FM241600 20018G30KT P6SM BKN040=



000
FTUS41 KRLX 231700
TAFEKN
TAF
KEKN 231724Z 2318/2418 15006KT P6SM SCT150
     FM232200 16011G20KT P6SM BKN150
     FM240200 17016G29KT 3SM -RA BR OVC035
     FM240400 16015G27KT 4SM -RA BR OVC030
     FM240800 19013G18KT P6SM BKN035
     FM241200 19011KT P6SM SCT070
     FM241500 20015G25KT P6SM SCT150=



000
FTUS41 KRLX 231700
TAFBKW
TAF
KBKW 231724Z 2318/2418 16011G20KT P6SM SCT060
     FM232300 14018G32KT 3SM -RA BR OVC015
     FM240500 16014G25KT 6SM -RA BR BKN015
     FM240600 17013G23KT P6SM BKN015
     FM240900 19012G22KT P6SM SCT030
     FM241600 19017G32KT P6SM SCT060=



000
FTUS41 KRLX 231700
TAFCKB
TAF
KCKB 231724Z 2318/2418 14007KT P6SM SCT140
     FM232100 16009G16KT P6SM BKN140
     FM240200 14006KT 6SM -RA BR OVC080
     FM240500 15010G18KT 5SM -RA BR OVC060
     FM240600 16012G22KT P6SM OVC050
     FM240900 20011G18KT P6SM BKN050
     FM241500 19014G25KT P6SM SCT150=



000
FTUS41 KRLX 231700
TAFCRW
TAF
KCRW 231724Z 2318/2418 14011G20KT P6SM BKN080
     FM232300 15012G18KT 5SM -RA BR OVC060
     FM240000 14011G16KT 3SM -RA BR OVC060
     FM240600 18011KT P6SM BKN040
     FM241500 19014G23KT P6SM SCT140
     FM241700 21019G30KT P6SM SCT080=



000
FTUS41 KRLX 231700
TAFPKB
TAF
KPKB 231724Z 2318/2418 14006KT P6SM BKN060
     FM232100 15010G18KT P6SM BKN060
     FM240000 15011G20KT 6SM -RA BR OVC060
     FM240300 15011G20KT 3SM -RA BR OVC025
     FM240600 17011G18KT P6SM OVC030
     FM241100 18011G20KT P6SM BKN035
     FM241600 19017G30KT P6SM BKN040=



000
FTUS41 KRLX 231400 AAA
TAFCKB
TAF AMD
KCKB 231442Z 2315/2412 13006KT P6SM SCT035
     FM240000 15010G17KT P6SM BKN080
     FM240200 14012G20KT 2SM -RA BR OVC080
     FM240600 15012G17KT 5SM -SHRA BR OVC050
     FM240800 19013KT 6SM BR BKN030
     FM240900 20013KT P6SM BKN020
     FM241100 18009KT P6SM BKN150=



000
FTUS41 KRLX 231400 AAA
TAFPKB
TAF AMD
KPKB 231442Z 2315/2412 17005KT P6SM BKN070
     FM240000 15010G17KT 5SM -RA BR OVC060
     FM240300 13010G17KT 2SM -RA BR OVC035
     FM240700 17011KT 6SM BR BKN020
     FM240900 20012KT P6SM BKN010=



000
FTUS41 KRLX 231400 AAA
TAFHTS
TAF AMD
KHTS 231442Z 2315/2412 13007KT P6SM BKN080
     FM232000 15009G17KT P6SM OVC050
     FM232100 15010G18KT 4SM -RA BR OVC050
     FM240600 19014G20KT 6SM BR BKN015
     FM240800 20012KT P6SM BKN015=



000
FTUS41 KRLX 231400 AAA
TAFBKW
TAF AMD
KBKW 231442Z 2315/2412 13007KT P6SM BKN150
     FM231700 15013G18KT P6SM BKN050
     FM231800 15014G25KT P6SM BKN020
     FM232100 14017G31KT 5SM -RA BR OVC020
     FM240000 14019G36KT 2SM -RA BR OVC010
     FM240300 14018G34KT 3SM -RA BR OVC010
     FM240600 17013G18KT 6SM -SHRA BR BKN030
     FM240800 20013KT P6SM BKN035=



000
FTUS41 KRLX 231400 AAA
TAFCRW
TAF AMD
KCRW 231442Z 2315/2412 13007KT P6SM SCT070 BKN100
     FM231800 14011G20KT P6SM BKN070
     FM232300 15014G24KT 3SM -RA BR OVC050
     FM240100 15015G25KT 2SM -RA BR OVC040
     FM240600 17014G20KT 6SM BR BKN040
     FM240800 19013KT P6SM BKN080=



000
FTUS41 KRLX 231400 AAA
TAFEKN
TAF AMD
KEKN 231442Z 2315/2412 17007KT P6SM SCT025
     FM232100 15013G23KT P6SM BKN080
     FM240200 14016G27KT 2SM -RA BR OVC080
     FM240600 15013G18KT 5SM -SHRA BR OVC035
     FM240800 20013KT 6SM BR BKN020
     FM241000 20011G17KT P6SM BKN140=



000
FTUS41 KRLX 231100
TAFEKN
TAF
KEKN 231120Z 2312/2412 20007KT P6SM SCT025
     FM232100 15013G23KT P6SM BKN080
     FM240200 14016G27KT 2SM -RA BR OVC080
     FM240600 15013G18KT 5SM -SHRA BR OVC035
     FM240800 20013KT 6SM BR BKN020
     FM241000 20011G17KT P6SM BKN140=



000
FTUS41 KRLX 231100
TAFCKB
TAF
KCKB 231120Z 2312/2412 16004KT P6SM SCT035
     FM240000 15010G17KT 6SM BR BKN080
     FM240200 14012G20KT 2SM -RA BR OVC080
     FM240600 15012G17KT 5SM -SHRA BR OVC050
     FM240800 19013KT 6SM BR BKN030
     FM240900 20013KT P6SM BKN020
     FM241100 18009KT P6SM BKN150=



000
FTUS41 KRLX 231100
TAFCRW
TAF
KCRW 231120Z 2312/2412 15005KT P6SM SCT070
     FM231900 14011G20KT P6SM BKN070
     FM232300 15014G24KT 3SM -RA BR OVC050
     FM240100 15015G25KT 2SM -RA BR OVC040
     FM240600 17014G20KT 6SM BR BKN040
     FM240800 19013KT P6SM BKN080=



000
FTUS41 KRLX 231100
TAFBKW
TAF
KBKW 231120Z 2312/2412 13007KT P6SM BKN100
     FM231700 15013G18KT P6SM BKN050
     FM231800 15014G25KT P6SM BKN020
     FM232100 14017G31KT 5SM -RA BR OVC020
     FM240000 14019G32KT 2SM -RA BR OVC010
     FM240300 14018G31KT 3SM -RA BR OVC010
     FM240600 17013G18KT 6SM -SHRA BR BKN030
     FM240800 20013KT P6SM BKN035=



000
FTUS41 KRLX 231100
TAFHTS
TAF
KHTS 231120Z 2312/2412 VRB03KT P6SM BKN060
     FM232000 15009G17KT 6SM BR OVC050
     FM232100 15010G18KT 4SM -RA BR OVC050
     FM240600 19014G20KT 6SM BR BKN015
     FM240800 20012KT P6SM BKN015=



000
FTUS41 KRLX 231100
TAFPKB
TAF
KPKB 231120Z 2312/2412 18005KT P6SM BKN035
     FM240000 15010G17KT 5SM -RA BR OVC060
     FM240300 13010G17KT 2SM -RA BR OVC035
     FM240700 17011KT 6SM BR BKN020
     FM240900 20012KT P6SM BKN010=



000
FTUS41 KRLX 230800 AAA
TAFHTS
TAF AMD
KHTS 230857Z 2309/2406 00000KT P6SM OVC100
     FM232000 15009G17KT 6SM BR OVC050
     FM232100 15010G18KT 4SM -RA BR OVC050
     FM232200 15011G19KT 3SM -RA BR OVC050=



000
FTUS41 KRLX 230800 AAA
TAFBKW
TAF AMD
KBKW 230857Z 2309/2406 13007KT P6SM FEW080 OVC100
     FM231800 15014G25KT P6SM BKN020
     FM232100 14017G31KT 5SM -RA BR OVC020
     FM240000 14019G32KT 2SM -RA BR OVC010
     FM240300 14018G31KT 3SM -RA BR BKN010
     FM240500 16015G22KT 6SM BR BKN010=



000
FTUS41 KRLX 230800 AAA
TAFPKB
TAF AMD
KPKB 230857Z 2309/2406 17005KT P6SM SKC
     FM232100 13009G16KT P6SM BKN080
     FM240000 15010G17KT 5SM -RA BR OVC060
     FM240300 13010G17KT 2SM -RA BR BKN035
     FM240500 16011G16KT 3SM -RA BR BKN025=



000
FTUS41 KRLX 230800 AAA
TAFCRW
TAF AMD
KCRW 230857Z 2309/2406 00000KT P6SM BKN090
     FM231900 14011G20KT P6SM BKN070
     FM232300 15014G24KT 3SM -RA BR OVC050
     FM240100 15015G25KT 2SM -RA BR BKN040
     FM240400 16015G25KT 3SM -RA BR BKN040=



000
FTUS41 KRLX 230800 AAA
TAFEKN
TAF AMD
KEKN 230857Z 2309/2406 00000KT P6SM FEW070
     FM232100 15013G23KT P6SM BKN080
     FM240200 14016G27KT 2SM -RA BR BKN080
     FM240500 15014G21KT 3SM -RA BR BKN060=



000
FTUS41 KRLX 230800 AAA
TAFCKB
TAF AMD
KCKB 230857Z 2309/2406 00000KT P6SM SKC
     FM240000 15010G17KT 6SM BR BKN080
     FM240200 14012G20KT 2SM -RA BR BKN080
     FM240500 15012G19KT 3SM -RA BR BKN050=



000
FTUS41 KRLX 230500
TAFHTS
TAF
KHTS 230534Z 2306/2406 VRB03KT P6SM SCT130
     FM232100 13007KT 4SM -RA BR OVC050
     FM240200 14010G19KT 3SM -RA BR BKN025=



000
FTUS41 KRLX 230500
TAFBKW
TAF
KBKW 230534Z 2306/2406 19004KT P6SM FEW150
     FM231800 15012G23KT P6SM BKN020
     FM232100 14013G28KT 5SM -RA BR OVC020
     FM240000 13015G32KT 2SM -RA BR OVC010
     FM240300 14016G30KT 3SM -RA BR BKN010
     FM240500 16014G25KT 6SM BR BKN010=



000
FTUS41 KRLX 230500
TAFCRW
TAF
KCRW 230534Z 2306/2406 00000KT P6SM SCT150
     FM232000 15010G19KT P6SM BKN070
     FM232300 14009G16KT 3SM -RA BR OVC050
     FM240100 14010G19KT 2SM -RA BR BKN040
     FM240400 15013G23KT 3SM -RA BR BKN040=



000
FTUS41 KRLX 230500
TAFEKN
TAF
KEKN 230534Z 2306/2406 00000KT P6SM SCT100
     FM240200 14009G16KT 2SM -RA BR BKN080
     FM240500 15009G16KT 3SM -RA BR BKN060=



000
FTUS41 KRLX 230500
TAFCKB
TAF
KCKB 230534Z 2306/2406 00000KT P6SM BKN090
     FM240200 14007KT 2SM -RA BR BKN080
     FM240500 15007KT 3SM -RA BR BKN050=



000
FTUS41 KRLX 230500
TAFPKB
TAF
KPKB 230534Z 2306/2406 VRB03KT P6SM BKN080
     FM240000 15007KT 5SM -RA BR OVC060
     FM240300 12007KT 2SM -RA BR BKN035
     FM240500 15008KT 3SM -RA BR BKN025=



000
FTUS41 KRLX 230200 AAA
TAFBKW
TAF AMD
KBKW 230251Z 2303/2324 14008KT P6SM SCT100
     FM231100 14008KT P6SM BKN100
     FM231400 15008KT P6SM BKN150
     FM231500 16010G18KT P6SM BKN150
     FM231800 15012G23KT P6SM BKN015
     FM232000 14013G26KT 6SM -SHRA OVC015
     FM232100 14013G28KT 5SM -SHRA BR OVC015
     FM232300 13014G31KT 5SM -SHRA BR SCT004 OVC010=



000
FTUS41 KRLX 230200 AAA
TAFHTS
TAF AMD
KHTS 230251Z 2303/2324 17004KT P6SM SCT140
     FM231100 15003KT P6SM BKN070
     FM231700 14006KT P6SM BKN070
     FM232000 14007KT 6SM -SHRA OVC050
     FM232100 13007KT 4SM -SHRA BR OVC050=



000
FTUS41 KRLX 230200 AAA
TAFEKN
TAF AMD
KEKN 230251Z 2303/2324 00000KT P6SM SCT070
      TEMPO 2304/2308 6SM BR
     FM231600 VRB03KT P6SM BKN070
     FM231900 16007KT P6SM BKN110
     FM232300 15008KT 6SM -SHRA BKN080=



000
FTUS41 KRLX 230200 AAA
TAFCKB
TAF AMD
KCKB 230251Z 2303/2324 15003KT P6SM BKN070
     FM232100 15007KT P6SM BKN090=



000
FTUS41 KRLX 230200 AAA
TAFCRW
TAF AMD
KCRW 230251Z 2303/2324 16005KT P6SM SCT090
     FM231400 15004KT P6SM BKN060
     FM231700 14007KT P6SM BKN090
     FM232000 15010G19KT P6SM BKN070
     FM232200 15010G19KT 6SM -SHRA OVC060
     FM232300 14009G16KT 5SM -SHRA BR OVC050=



000
FTUS41 KRLX 230200 AAA
TAFPKB
TAF AMD
KPKB 230251Z 2303/2324 17004KT P6SM BKN080
     FM230800 17003KT P6SM SCT070
     FM231200 15004KT P6SM BKN035
     FM232000 14006KT P6SM BKN080=



000
FTUS41 KRLX 222300 RRA
TAFHTS
TAF
KHTS 222344Z 2300/2324 16003KT P6SM SCT140
     FM231100 15003KT P6SM BKN070
     FM231700 14006KT P6SM BKN070
     FM232000 14007KT 6SM -SHRA OVC050
     FM232100 13007KT 4SM -SHRA BR OVC050=



000
FTUS41 KRLX 222300 RRA
TAFEKN
TAF
KEKN 222344Z 2300/2324 00000KT P6SM BKN060
     FM230200 00000KT P6SM SCT070
     FM231600 VRB03KT P6SM BKN070
     FM231900 16007KT P6SM BKN110
     FM232300 15008KT 6SM -SHRA BKN080=



000
FTUS41 KRLX 222300 RRA
TAFPKB
TAF
KPKB 222344Z 2300/2324 17004KT P6SM BKN080
     FM230800 17003KT P6SM SCT070
     FM231200 15004KT P6SM BKN035
     FM232000 14006KT P6SM BKN080=



000
FTUS41 KRLX 222300 RRA
TAFCKB
TAF
KCKB 222344Z 2300/2324 15003KT P6SM BKN070
     FM232100 15007KT P6SM BKN090=



000
FTUS41 KRLX 222300 RRA
TAFCRW
TAF
KCRW 222344Z 2300/2324 16004KT P6SM SCT090
     FM231400 15004KT P6SM BKN060
     FM231700 14007KT P6SM BKN090
     FM232000 15010G19KT P6SM BKN070
     FM232200 15010G19KT 6SM -SHRA OVC060
     FM232300 14009G16KT 5SM -SHRA BR OVC050=



000
FTUS41 KRLX 222300 RRA
TAFBKW
TAF
KBKW 222344Z 2300/2324 16005KT P6SM SCT200
     FM231100 16003KT P6SM BKN100
     FM231400 16007KT P6SM BKN150
     FM231500 16010G18KT P6SM BKN150
     FM231800 15012G23KT P6SM BKN015
     FM232000 15013G26KT 6SM -SHRA OVC015
     FM232100 14013G28KT 5SM -SHRA BR OVC015
     FM232300 13014G31KT 5SM -SHRA BR SCT004 OVC010=



000
FTUS41 KRLX 221700
TAFEKN
TAF
KEKN 221720Z 2218/2318 23007KT P6SM OVC040
     FM222100 22005KT P6SM BKN060
     FM230600 00000KT P6SM SCT100
     FM231600 VRB03KT P6SM BKN090=



000
FTUS41 KRLX 221700
TAFHTS
TAF
KHTS 221720Z 2218/2318 22008G13KT P6SM SCT080
     FM230200 18004KT P6SM SCT140
     FM231100 VRB03KT P6SM BKN100=



000
FTUS41 KRLX 221700
TAFCRW
TAF
KCRW 221720Z 2218/2318 22010KT P6SM SCT080
     FM230200 VRB03KT P6SM SCT140
     FM231400 VRB03KT P6SM BKN090
     FM231700 14012G20KT P6SM BKN080=



000
FTUS41 KRLX 221700
TAFPKB
TAF
KPKB 221720Z 2218/2318 21008G13KT P6SM BKN070
     FM230000 20005KT P6SM SCT080
     FM230500 18004KT P6SM BKN080
     FM230800 VRB03KT P6SM SCT070
     FM231200 VRB03KT P6SM BKN035=



000
FTUS41 KRLX 221700
TAFCKB
TAF
KCKB 221720Z 2218/2318 21007KT P6SM BKN060
     FM230100 19005KT P6SM SCT080
     FM231600 VRB03KT P6SM BKN090=



000
FTUS41 KRLX 221700
TAFBKW
TAF
KBKW 221720Z 2218/2318 21005KT P6SM FEW120
     FM231100 15005KT P6SM BKN120
     FM231600 14009G15KT P6SM BKN035
     FM231700 14018G30KT P6SM BKN025=



000
FTUS41 KRLX 221500 AAA
TAFPKB
TAF AMD
KPKB 221518Z 2215/2312 20004KT P6SM OVC040
     FM221700 19006KT P6SM BKN040=



000
FTUS41 KRLX 221500 AAA
TAFBKW
TAF AMD
KBKW 221518Z 2215/2312 VRB03KT P6SM SCT250=



000
FTUS41 KRLX 221500 AAA
TAFEKN
TAF AMD
KEKN 221518Z 2215/2312 00000KT P6SM SCT050
     FM221700 VRB03KT P6SM BKN050=



000
FTUS41 KRLX 221500 AAA
TAFHTS
TAF AMD
KHTS 221518Z 2215/2312 20007KT P6SM BKN050
     FM222000 19006KT P6SM SCT070=



000
FTUS41 KRLX 221500 AAA
TAFCKB
TAF AMD
KCKB 221518Z 2215/2312 20005KT P6SM OVC050
     FM221800 20004KT P6SM SCT050=



000
FTUS41 KRLX 221500 AAA
TAFCRW
TAF AMD
KCRW 221518Z 2215/2312 20007KT P6SM SCT050
     FM221600 19005KT P6SM SCT040=



000
FTUS41 KRLX 221100
TAFCRW
TAF
KCRW 221125Z 2212/2312 00000KT P6SM BKN250
     FM221500 19005KT P6SM SCT040=



000
FTUS41 KRLX 221100
TAFHTS
TAF
KHTS 221125Z 2212/2312 00000KT P6SM BKN050
     FM222000 19006KT P6SM SCT070=



000
FTUS41 KRLX 221100
TAFBKW
TAF
KBKW 221125Z 2212/2312 VRB03KT P6SM SCT250=



000
FTUS41 KRLX 221100
TAFPKB
TAF
KPKB 221125Z 2212/2312 00000KT P6SM -FZRA SCT050
     FM221400 VRB03KT P6SM BKN050=



000
FTUS41 KRLX 221100
TAFEKN
TAF
KEKN 221125Z 2212/2312 00000KT P6SM BKN250
     FM221700 VRB03KT P6SM BKN080=



000
FTUS41 KRLX 221100
TAFCKB
TAF
KCKB 221125Z 2212/2312 00000KT P6SM BKN250
     FM221500 20004KT P6SM SCT050=



000
FTUS41 KRLX 220900 AAA
TAFBKW
TAF AMD
KBKW 220943Z 2210/2306 17004KT P6SM SKC=



000
FTUS41 KRLX 220900 AAA
TAFCKB
TAF AMD
KCKB 220943Z 2210/2306 00000KT P6SM SCT250
     FM221600 20004KT P6SM BKN050=



000
FTUS41 KRLX 220900 AAA
TAFPKB
TAF AMD
KPKB 220943Z 2210/2306 00000KT P6SM FEW150
     FM221000 VRB03KT P6SM -FZRA BKN035
     FM221400 VRB03KT P6SM BKN050=



000
FTUS41 KRLX 220900 AAA
TAFCRW
TAF AMD
KCRW 220943Z 2210/2306 00000KT P6SM SKC
     FM221500 19005KT P6SM SCT040=



000
FTUS41 KRLX 220900 AAA
TAFEKN
TAF AMD
KEKN 220943Z 2210/2306 00000KT P6SM SKC
     FM221700 VRB03KT P6SM BKN080=



000
FTUS41 KRLX 220900 AAA
TAFHTS
TAF AMD
KHTS 220943Z 2210/2306 00000KT P6SM FEW150
     FM221200 00000KT P6SM BKN050=



000
FTUS41 KRLX 220600 RRA
TAFEKN
TAF AMD
KEKN 220625Z 2206/2306 00000KT P6SM SKC
     FM221700 VRB03KT P6SM BKN080=



000
FTUS41 KRLX 220600 RRA
TAFPKB
TAF AMD
KPKB 220625Z 2206/2306 00000KT P6SM FEW150
     FM221400 VRB03KT P6SM BKN050=



000
FTUS41 KRLX 220600 RRA
TAFCRW
TAF AMD
KCRW 220625Z 2206/2306 00000KT P6SM SKC
     FM221500 19005KT P6SM SCT040=



000
FTUS41 KRLX 220600 RRA
TAFHTS
TAF AMD
KHTS 220625Z 2206/2306 00000KT P6SM FEW150
     FM221200 00000KT P6SM BKN050=



000
FTUS41 KRLX 220600 RRA
TAFBKW
TAF AMD
KBKW 220625Z 2206/2306 17004KT P6SM SKC=



000
FTUS41 KRLX 220600 RRA
TAFCKB
TAF AMD
KCKB 220625Z 2206/2306 00000KT P6SM SCT250
     FM221600 20004KT P6SM BKN050=



000
FTUS41 KRLX 220500
TAFHTS
TAF
KHTS 220539Z 2206/2306 00000KT P6SM FEW150
     FM221200 00000KT P6SM BKN050=



000
FTUS41 KRLX 220500
TAFPKB
TAF
KPKB 220539Z 2206/2306 00000KT P6SM FEW150
     FM221400 VRB03KT P6SM BKN050=



000
FTUS41 KRLX 220500
TAFBKW
TAF
KBKW 220539Z 2206/2306 17004KT P6SM SKC=



000
FTUS41 KRLX 220500
TAFCKB
TAF
KCKB 220539Z 2206/2306 00000KT P6SM SCT250
     FM221600 20004KT P6SM BKN050=



000
FTUS41 KRLX 220500
TAFCRW
TAF
KCRW 220539Z 2206/2306 00000KT P6SM SKC
     FM221500 19005KT P6SM SCT040=



000
FTUS41 KRLX 220500
TAFEKN
TAF
KEKN 220539Z 2206/2306 00000KT P6SM SKC
     FM221700 VRB03KT P6SM BKN080=



000
FTUS41 KRLX 220200 AAA
TAFBKW
TAF AMD
KBKW 220221Z 2202/2224 15005KT P6SM SKC
     FM221500 19006KT P6SM SCT120=



000
FTUS41 KRLX 220200 AAA
TAFEKN
TAF AMD
KEKN 220221Z 2202/2224 00000KT P6SM SCT250
     FM221700 22004KT P6SM BKN080
     FM222300 00000KT P6SM SCT060=



000
FTUS41 KRLX 220200 AAA
TAFPKB
TAF AMD
KPKB 220221Z 2202/2224 00000KT P6SM SKC
     FM221200 16003KT P6SM SCT050
     FM221400 19004KT P6SM BKN050=



000
FTUS41 KRLX 220200 AAA
TAFCRW
TAF AMD
KCRW 220221Z 2202/2224 00000KT P6SM SKC
     FM221500 19005KT P6SM SCT040
     FM221700 19005KT P6SM BKN050
     FM222000 19006KT P6SM SCT070=



000
FTUS41 KRLX 220200 AAA
TAFHTS
TAF AMD
KHTS 220221Z 2202/2224 10003KT P6SM SCT250
     FM221200 15004KT P6SM BKN050
     FM221500 20006KT P6SM BKN040
     FM222000 19006KT P6SM SCT070=



000
FTUS41 KRLX 220200 AAA
TAFCKB
TAF AMD
KCKB 220221Z 2202/2224 00000KT P6SM SCT250
     FM221500 20004KT P6SM BKN050=



000
FTUS41 KRLX 212300
TAFPKB
TAF
KPKB 212339Z 2200/2224 00000KT P6SM SKC
     FM221200 16003KT P6SM SCT050
     FM221400 19004KT P6SM BKN050=



000
FTUS41 KRLX 212300
TAFCKB
TAF
KCKB 212339Z 2200/2224 00000KT P6SM SCT250
     FM221500 20004KT P6SM BKN050=



000
FTUS41 KRLX 212300
TAFBKW
TAF
KBKW 212339Z 2200/2224 00000KT P6SM SKC
     FM221500 19006KT P6SM SCT120=



000
FTUS41 KRLX 212300
TAFEKN
TAF
KEKN 212339Z 2200/2224 00000KT P6SM SCT250
     FM221700 22004KT P6SM BKN080
     FM222300 00000KT P6SM SCT060=



000
FTUS41 KRLX 212300
TAFHTS
TAF
KHTS 212339Z 2200/2224 10003KT P6SM SCT250
     FM221200 15004KT P6SM BKN050
     FM221500 20006KT P6SM BKN040
     FM222000 19006KT P6SM SCT070=



000
FTUS41 KRLX 212300
TAFCRW
TAF
KCRW 212339Z 2200/2224 00000KT P6SM SKC
     FM221500 19005KT P6SM SCT040
     FM221700 19005KT P6SM BKN050
     FM222000 19006KT P6SM SCT070=



000
FTUS41 KRLX 211700
TAFCKB
TAF
KCKB 211721Z 2118/2218 27005KT P6SM SCT040
     FM212300 24004KT P6SM SKC
     FM220000 00000KT P6SM FEW200
     FM221600 20006KT P6SM BKN050=



000
FTUS41 KRLX 211700
TAFBKW
TAF
KBKW 211721Z 2118/2218 31006KT P6SM SKC
     FM212300 VRB03KT P6SM SKC=



000
FTUS41 KRLX 211700
TAFCRW
TAF
KCRW 211721Z 2118/2218 VRB05KT P6SM SKC
     FM221500 18004KT P6SM SCT050
     FM221700 19005KT P6SM BKN060=



000
FTUS41 KRLX 211700
TAFPKB
TAF
KPKB 211721Z 2118/2218 28004KT P6SM FEW040
     FM212300 VRB03KT P6SM SKC
     FM221200 VRB03KT P6SM SCT050
     FM221400 18005KT P6SM BKN045=



000
FTUS41 KRLX 211700
TAFEKN
TAF
KEKN 211721Z 2118/2218 29006KT P6SM FEW030
     FM212300 26004KT P6SM SKC
     FM221200 00000KT P6SM FEW200
     FM221700 22005KT P6SM BKN080=



000
FTUS41 KRLX 211700
TAFHTS
TAF
KHTS 211721Z 2118/2218 VRB04KT P6SM SKC
     FM221200 VRB03KT P6SM BKN050
     FM221700 20007KT P6SM BKN045=



000
FTUS41 KRLX 211500 AAC
TAFEKN
TAF AMD
KEKN 211557Z 2116/2212 28009G15KT P6SM SCT040
     FM212300 00000KT P6SM FEW100=



000
FTUS41 KRLX 211500 AAC
TAFEKN
TAF AMD
KEKN 211557Z 2116/2212 28009G15KT P6SM SCT040
     FM212300 00000KT P6SM FEW100=



000
FTUS41 KRLX 211400 AAB
TAFEKN
TAF AMD
KEKN 211456Z 2115/2212 28007KT P6SM BKN030
     FM211700 28004KT P6SM SCT030
     FM212300 00000KT P6SM FEW100=



000
FTUS41 KRLX 211400 AAA
TAFPKB
TAF AMD
KPKB 211456Z 2115/2212 26005KT P6SM SKC=



000
FTUS41 KRLX 211400 AAA
TAFBKW
TAF AMD
KBKW 211456Z 2115/2212 31012KT P6SM SCT025
     FM212300 00000KT P6SM SKC=



000
FTUS41 KRLX 211400 AAA
TAFCKB
TAF AMD
KCKB 211456Z 2115/2212 26006KT P6SM FEW050=



000
FTUS41 KRLX 211400 AAA
TAFCRW
TAF AMD
KCRW 211456Z 2115/2212 25005KT P6SM FEW040=



000
FTUS41 KRLX 211400 AAA
TAFHTS
TAF AMD
KHTS 211456Z 2115/2212 22005KT P6SM SKC=



000
FTUS41 KRLX 211300 AAA
TAFEKN
TAF AMD
KEKN 211358Z 2114/2212 28007KT P6SM BKN030
     FM211800 28004KT P6SM SCT030
     FM212300 00000KT P6SM FEW100=



000
FTUS41 KRLX 211100
TAFBKW
TAF
KBKW 211120Z 2112/2212 31012KT P6SM SCT025
     FM211400 31007KT P6SM SCT025
     FM212300 00000KT P6SM SKC=



000
FTUS41 KRLX 211100
TAFCKB
TAF
KCKB 211120Z 2112/2212 26006KT P6SM FEW050=



000
FTUS41 KRLX 211100
TAFCRW
TAF
KCRW 211120Z 2112/2212 25005KT P6SM FEW040=



000
FTUS41 KRLX 211100
TAFPKB
TAF
KPKB 211120Z 2112/2212 26005KT P6SM SKC=



000
FTUS41 KRLX 211100
TAFEKN
TAF
KEKN 211120Z 2112/2212 30007KT P6SM SCT029 OVC040
     FM211700 29005KT P6SM BKN025
     FM212000 28004KT P6SM SCT030
     FM212300 00000KT P6SM FEW100=



000
FTUS41 KRLX 211100
TAFHTS
TAF
KHTS 211120Z 2112/2212 22005KT P6SM SKC=



000
FTUS41 KRLX 210900 AAA
TAFEKN
TAF AMD
KEKN 210907Z 2109/2206 27010G18KT P6SM OVC040
     FM211000 29008KT 6SM BR BKN015
     FM211700 29005KT P6SM BKN025
     FM212000 28004KT P6SM SCT030=



000
FTUS41 KRLX 210900 AAA
TAFCKB
TAF AMD
KCKB 210907Z 2109/2206 26008KT P6SM FEW035 BKN040
     FM211700 28005KT P6SM SCT040=



000
FTUS41 KRLX 210900 AAA
TAFHTS
TAF AMD
KHTS 210907Z 2109/2206 20004KT P6SM SKC=



000
FTUS41 KRLX 210900 AAB
TAFBKW
TAF AMD
KBKW 210907Z 2109/2206 31008KT P6SM OVC025
     FM211400 31007KT P6SM SCT025=



000
FTUS41 KRLX 210900 AAA
TAFCRW
TAF AMD
KCRW 210907Z 2109/2206 24006KT P6SM FEW040=



000
FTUS41 KRLX 210900 AAA
TAFPKB
TAF AMD
KPKB 210907Z 2109/2206 25004KT P6SM SKC
     FM211100 27004KT P6SM SCT030=



000
FTUS41 KRLX 210600 AAA
TAFBKW
TAF AMD
KBKW 210610Z 2106/2206 31006KT P6SM BKN025
     FM211400 31007KT P6SM SCT025=



000
FTUS41 KRLX 210500
TAFBKW
TAF
KBKW 210523Z 2106/2206 29012G17KT P6SM SKC
     FM210900 30006KT P6SM BKN020
     FM211400 31007KT P6SM SCT025=



000
FTUS41 KRLX 210500
TAFCKB
TAF
KCKB 210523Z 2106/2206 28007KT P6SM OVC045
     FM211700 28005KT P6SM SCT040=



000
FTUS41 KRLX 210500
TAFPKB
TAF
KPKB 210523Z 2106/2206 27004KT P6SM OVC045
     FM211100 27004KT P6SM SCT030=



000
FTUS41 KRLX 210500
TAFHTS
TAF
KHTS 210523Z 2106/2206 VRB04KT P6SM SCT035=



000
FTUS41 KRLX 210500
TAFEKN
TAF
KEKN 210523Z 2106/2206 27009G17KT P6SM BKN030 OVC040
     FM211000 29008KT 6SM BR BKN015
     FM211700 29005KT P6SM BKN025
     FM212000 28004KT P6SM SCT030=



000
FTUS41 KRLX 210500
TAFCRW
TAF
KCRW 210523Z 2106/2206 28003KT P6SM SCT035=



    US Dept of Commerce
    National Oceanic and Atmospheric Administration
    National Weather Service
    1325 East West Highway
    Silver Spring, MD 20910
    Page Author: NWS Internet Services Team
Disclaimer
Information Quality
Credits
Glossary
Privacy Policy
Freedom of Information Act (FOIA)
About Us
Career Opportunities